MMTG/TGZ METAR and TAF weather

Enter ICAO airport designator
Station Type Date Time Source
MMTG METAR 2021/05/14 13:50 UTC NOAA

MMTG 141350Z 34007KT 6SM FEW020 FEW100 BKN300 25/20 A3005 RMK 8/132 HZY


Station Type Date Time Source
MMTG Decoded METAR 2021/05/14 13:50 UTC NOAA

Tuxtla Gutierrez, Chis., Mexico (MMTG) 16-45N 093-07W
May 14, 2021 - 09:50 AM EDT / 2021.05.14 1350 UTC
Wind: from the NNW (340 degrees) at 8 MPH (7 KT):0
Visibility: 6 mile(s):0
Sky conditions: mostly cloudy
Temperature: 77 F (25 C)
Dew Point: 68 F (20 C)
Relative Humidity: 73%
Pressure (altimeter): 30.05 in. Hg (1017 hPa)
ob: MMTG 141350Z 34007KT 6SM FEW020 FEW100 BKN300 25/20 A3005 RMK 8/132 HZY
cycle: 14

Station Type Date Time Source
MMTG TAF 2021/05/14 06:12 UTC NOAA

TAF MMTG 140406Z 1406/1506 33005KT PSM SCT030 SCT080
TEMPO 1410/1414 2SM BR SCT010
FM141600 30012KT P6SM SCT020
FM142200 33015KT P6SM BKN020 BKN080 PROB40 1422/1502 5SM TSRA BKN020CB
FM150300 33005KT P6SM SCT020 BKN080

Example: see airport list